sensor_id;sensor_type;location;lat;lon;timestamp;P1;durP1;ratioP1;P2;durP2;ratioP2
44862;SDS011;30597;49.628;10.850;2023-07-28T00:01:37;3.27;;;3.00;;
44862;SDS011;30597;49.628;10.850;2023-07-28T00:04:02;3.50;;;3.20;;
44862;SDS011;30597;49.628;10.850;2023-07-28T00:06:32;3.90;;;3.50;;
44862;SDS011;30597;49.628;10.850;2023-07-28T00:08:58;3.00;;;2.70;;
44862;SDS011;30597;49.628;10.850;2023-07-28T00:11:23;3.20;;;2.90;;
44862;SDS011;30597;49.628;10.850;2023-07-28T00:13:49;3.63;;;3.33;;
44862;SDS011;30597;49.628;10.850;2023-07-28T00:16:17;3.73;;;3.30;;
44862;SDS011;30597;49.628;10.850;2023-07-28T00:18:42;2.90;;;2.60;;
44862;SDS011;30597;49.628;10.850;2023-07-28T00:21:08;3.80;;;3.27;;
44862;SDS011;30597;49.628;10.850;2023-07-28T00:23:33;3.70;;;3.40;;
44862;SDS011;30597;49.628;10.850;2023-07-28T00:25:59;3.70;;;3.07;;
44862;SDS011;30597;49.628;10.850;2023-07-28T00:28:25;3.63;;;3.10;;
44862;SDS011;30597;49.628;10.850;2023-07-28T00:30:50;3.33;;;3.00;;
44862;SDS011;30597;49.628;10.850;2023-07-28T00:33:16;3.37;;;2.97;;
44862;SDS011;30597;49.628;10.850;2023-07-28T00:35:42;3.13;;;2.87;;
44862;SDS011;30597;49.628;10.850;2023-07-28T00:38:08;3.53;;;3.23;;
44862;SDS011;30597;49.628;10.850;2023-07-28T00:40:34;3.40;;;2.83;;
44862;SDS011;30597;49.628;10.850;2023-07-28T00:43:00;3.10;;;2.80;;
44862;SDS011;30597;49.628;10.850;2023-07-28T00:45:26;4.53;;;2.87;;
44862;SDS011;30597;49.628;10.850;2023-07-28T00:47:52;3.60;;;3.30;;
44862;SDS011;30597;49.628;10.850;2023-07-28T00:50:18;3.50;;;3.00;;
44862;SDS011;30597;49.628;10.850;2023-07-28T00:52:43;6.10;;;3.40;;
44862;SDS011;30597;49.628;10.850;2023-07-28T00:55:11;3.10;;;2.80;;
44862;SDS011;30597;49.628;10.850;2023-07-28T00:57:39;3.53;;;2.60;;
44862;SDS011;30597;49.628;10.850;2023-07-28T01:00:05;3.20;;;3.00;;
44862;SDS011;30597;49.628;10.850;2023-07-28T01:02:31;3.37;;;3.07;;
44862;SDS011;30597;49.628;10.850;2023-07-28T01:04:59;2.87;;;2.67;;
44862;SDS011;30597;49.628;10.850;2023-07-28T01:07:47;3.23;;;2.93;;
44862;SDS011;30597;49.628;10.850;2023-07-28T01:10:28;3.57;;;3.27;;
44862;SDS011;30597;49.628;10.850;2023-07-28T01:12:56;3.20;;;2.90;;
44862;SDS011;30597;49.628;10.850;2023-07-28T01:15:22;2.90;;;2.70;;
44862;SDS011;30597;49.628;10.850;2023-07-28T01:17:47;3.20;;;2.90;;
44862;SDS011;30597;49.628;10.850;2023-07-28T01:20:13;3.80;;;3.10;;
44862;SDS011;30597;49.628;10.850;2023-07-28T01:22:47;3.00;;;2.80;;
44862;SDS011;30597;49.628;10.850;2023-07-28T01:28:08;2.97;;;2.77;;
44862;SDS011;30597;49.628;10.850;2023-07-28T01:30:35;2.77;;;2.57;;
44862;SDS011;30597;49.628;10.850;2023-07-28T01:33:01;2.90;;;2.70;;
44862;SDS011;30597;49.628;10.850;2023-07-28T01:35:30;2.60;;;2.40;;
44862;SDS011;30597;49.628;10.850;2023-07-28T01:37:56;2.90;;;2.70;;
44862;SDS011;30597;49.628;10.850;2023-07-28T01:40:21;2.60;;;2.40;;
44862;SDS011;30597;49.628;10.850;2023-07-28T01:42:47;3.27;;;2.97;;
44862;SDS011;30597;49.628;10.850;2023-07-28T01:45:13;3.30;;;2.77;;
44862;SDS011;30597;49.628;10.850;2023-07-28T01:47:38;2.90;;;2.60;;
44862;SDS011;30597;49.628;10.850;2023-07-28T01:50:04;2.67;;;2.47;;
44862;SDS011;30597;49.628;10.850;2023-07-28T01:52:30;2.90;;;2.70;;
44862;SDS011;30597;49.628;10.850;2023-07-28T01:54:55;2.70;;;2.50;;
44862;SDS011;30597;49.628;10.850;2023-07-28T01:57:21;2.90;;;2.67;;
44862;SDS011;30597;49.628;10.850;2023-07-28T01:59:47;2.53;;;2.33;;
44862;SDS011;30597;49.628;10.850;2023-07-28T02:02:12;3.50;;;3.20;;
44862;SDS011;30597;49.628;10.850;2023-07-28T02:04:38;3.93;;;2.33;;
44862;SDS011;30597;49.628;10.850;2023-07-28T02:07:03;2.90;;;2.60;;
44862;SDS011;30597;49.628;10.850;2023-07-28T02:09:29;2.83;;;2.63;;
44862;SDS011;30597;49.628;10.850;2023-07-28T02:11:55;2.57;;;2.37;;
44862;SDS011;30597;49.628;10.850;2023-07-28T02:14:20;2.67;;;2.40;;
44862;SDS011;30597;49.628;10.850;2023-07-28T02:16:46;2.70;;;2.50;;
44862;SDS011;30597;49.628;10.850;2023-07-28T02:19:11;2.60;;;2.40;;
44862;SDS011;30597;49.628;10.850;2023-07-28T02:21:37;2.50;;;2.30;;
44862;SDS011;30597;49.628;10.850;2023-07-28T02:24:02;3.20;;;2.80;;
44862;SDS011;30597;49.628;10.850;2023-07-28T02:26:28;2.57;;;2.37;;
44862;SDS011;30597;49.628;10.850;2023-07-28T02:28:54;2.00;;;1.80;;
44862;SDS011;30597;49.628;10.850;2023-07-28T02:31:19;3.00;;;2.73;;
44862;SDS011;30597;49.628;10.850;2023-07-28T02:33:45;2.63;;;2.43;;
44862;SDS011;30597;49.628;10.850;2023-07-28T02:36:10;3.23;;;2.50;;
44862;SDS011;30597;49.628;10.850;2023-07-28T02:38:36;2.93;;;2.30;;
44862;SDS011;30597;49.628;10.850;2023-07-28T02:41:01;2.43;;;2.23;;
44862;SDS011;30597;49.628;10.850;2023-07-28T02:43:28;2.90;;;2.67;;
44862;SDS011;30597;49.628;10.850;2023-07-28T02:45:55;3.00;;;2.30;;
44862;SDS011;30597;49.628;10.850;2023-07-28T02:48:22;3.33;;;2.10;;
44862;SDS011;30597;49.628;10.850;2023-07-28T02:50:48;2.80;;;2.60;;
44862;SDS011;30597;49.628;10.850;2023-07-28T02:53:15;3.20;;;2.67;;
44862;SDS011;30597;49.628;10.850;2023-07-28T02:55:41;2.67;;;2.40;;
44862;SDS011;30597;49.628;10.850;2023-07-28T02:58:08;2.10;;;1.90;;
44862;SDS011;30597;49.628;10.850;2023-07-28T03:00:36;2.77;;;2.30;;
44862;SDS011;30597;49.628;10.850;2023-07-28T03:03:03;2.30;;;2.00;;
44862;SDS011;30597;49.628;10.850;2023-07-28T03:05:28;2.60;;;2.23;;
44862;SDS011;30597;49.628;10.850;2023-07-28T03:07:56;2.77;;;2.57;;
44862;SDS011;30597;49.628;10.850;2023-07-28T03:10:21;2.80;;;2.50;;
44862;SDS011;30597;49.628;10.850;2023-07-28T03:12:47;3.10;;;2.03;;
44862;SDS011;30597;49.628;10.850;2023-07-28T03:15:13;2.50;;;2.30;;
44862;SDS011;30597;49.628;10.850;2023-07-28T03:17:38;2.60;;;1.97;;
44862;SDS011;30597;49.628;10.850;2023-07-28T03:20:04;2.30;;;2.10;;
44862;SDS011;30597;49.628;10.850;2023-07-28T03:22:30;2.60;;;2.40;;
44862;SDS011;30597;49.628;10.850;2023-07-28T03:24:56;2.47;;;2.27;;
44862;SDS011;30597;49.628;10.850;2023-07-28T03:27:21;2.50;;;2.30;;
44862;SDS011;30597;49.628;10.850;2023-07-28T03:29:47;2.27;;;2.07;;
44862;SDS011;30597;49.628;10.850;2023-07-28T03:32:12;2.30;;;2.10;;
44862;SDS011;30597;49.628;10.850;2023-07-28T03:34:38;3.07;;;2.80;;
44862;SDS011;30597;49.628;10.850;2023-07-28T03:37:04;3.13;;;2.47;;
44862;SDS011;30597;49.628;10.850;2023-07-28T03:39:29;2.43;;;2.23;;
44862;SDS011;30597;49.628;10.850;2023-07-28T03:41:56;3.90;;;2.10;;
44862;SDS011;30597;49.628;10.850;2023-07-28T03:44:22;2.93;;;2.20;;
44862;SDS011;30597;49.628;10.850;2023-07-28T03:46:48;2.20;;;2.00;;
44862;SDS011;30597;49.628;10.850;2023-07-28T03:49:13;2.10;;;1.67;;
44862;SDS011;30597;49.628;10.850;2023-07-28T03:51:39;2.83;;;2.63;;
44862;SDS011;30597;49.628;10.850;2023-07-28T03:54:04;2.30;;;2.10;;
44862;SDS011;30597;49.628;10.850;2023-07-28T03:56:30;2.53;;;2.33;;
44862;SDS011;30597;49.628;10.850;2023-07-28T03:58:56;3.20;;;2.03;;
44862;SDS011;30597;49.628;10.850;2023-07-28T04:01:21;2.30;;;2.10;;
44862;SDS011;30597;49.628;10.850;2023-07-28T04:03:47;2.60;;;1.93;;
44862;SDS011;30597;49.628;10.850;2023-07-28T04:06:13;2.20;;;2.00;;
44862;SDS011;30597;49.628;10.850;2023-07-28T04:08:41;2.20;;;2.00;;
44862;SDS011;30597;49.628;10.850;2023-07-28T04:11:07;1.77;;;1.67;;
44862;SDS011;30597;49.628;10.850;2023-07-28T04:13:33;2.30;;;2.10;;
44862;SDS011;30597;49.628;10.850;2023-07-28T04:15:59;3.10;;;2.60;;
44862;SDS011;30597;49.628;10.850;2023-07-28T04:18:25;4.03;;;2.40;;
44862;SDS011;30597;49.628;10.850;2023-07-28T04:20:50;2.90;;;2.20;;
44862;SDS011;30597;49.628;10.850;2023-07-28T04:23:16;2.50;;;2.30;;
44862;SDS011;30597;49.628;10.850;2023-07-28T04:25:42;1.93;;;1.83;;
44862;SDS011;30597;49.628;10.850;2023-07-28T04:28:07;2.30;;;2.10;;
44862;SDS011;30597;49.628;10.850;2023-07-28T04:30:34;2.60;;;2.30;;
44862;SDS011;30597;49.628;10.850;2023-07-28T04:32:59;2.03;;;1.83;;
44862;SDS011;30597;49.628;10.850;2023-07-28T04:35:25;3.47;;;2.20;;
44862;SDS011;30597;49.628;10.850;2023-07-28T04:37:51;2.60;;;2.40;;
44862;SDS011;30597;49.628;10.850;2023-07-28T04:40:16;2.47;;;2.17;;
44862;SDS011;30597;49.628;10.850;2023-07-28T04:42:42;2.37;;;1.90;;
44862;SDS011;30597;49.628;10.850;2023-07-28T04:45:07;4.37;;;2.10;;
44862;SDS011;30597;49.628;10.850;2023-07-28T04:47:33;2.40;;;2.20;;
44862;SDS011;30597;49.628;10.850;2023-07-28T04:49:59;2.90;;;1.87;;
44862;SDS011;30597;49.628;10.850;2023-07-28T04:52:25;2.43;;;2.20;;
44862;SDS011;30597;49.628;10.850;2023-07-28T04:54:50;3.20;;;1.80;;
44862;SDS011;30597;49.628;10.850;2023-07-28T04:57:16;3.70;;;2.00;;
44862;SDS011;30597;49.628;10.850;2023-07-28T04:59:43;3.27;;;2.03;;
44862;SDS011;30597;49.628;10.850;2023-07-28T05:02:08;3.50;;;2.20;;
44862;SDS011;30597;49.628;10.850;2023-07-28T05:04:34;9.83;;;2.50;;
44862;SDS011;30597;49.628;10.850;2023-07-28T05:07:01;4.33;;;2.03;;
44862;SDS011;30597;49.628;10.850;2023-07-28T05:09:27;15.23;;;3.53;;
44862;SDS011;30597;49.628;10.850;2023-07-28T05:11:54;15.33;;;3.30;;
44862;SDS011;30597;49.628;10.850;2023-07-28T05:14:19;12.10;;;3.70;;
44862;SDS011;30597;49.628;10.850;2023-07-28T05:16:45;14.43;;;4.30;;
44862;SDS011;30597;49.628;10.850;2023-07-28T05:19:12;11.10;;;5.43;;
44862;SDS011;30597;49.628;10.850;2023-07-28T05:21:38;12.70;;;4.73;;
44862;SDS011;30597;49.628;10.850;2023-07-28T05:24:03;8.43;;;5.50;;
44862;SDS011;30597;49.628;10.850;2023-07-28T05:26:29;21.53;;;6.67;;
44862;SDS011;30597;49.628;10.850;2023-07-28T05:28:55;12.87;;;4.67;;
44862;SDS011;30597;49.628;10.850;2023-07-28T05:31:20;10.47;;;4.50;;
44862;SDS011;30597;49.628;10.850;2023-07-28T05:33:46;5.93;;;3.87;;
44862;SDS011;30597;49.628;10.850;2023-07-28T05:36:11;10.87;;;4.10;;
44862;SDS011;30597;49.628;10.850;2023-07-28T05:38:37;12.60;;;4.20;;
44862;SDS011;30597;49.628;10.850;2023-07-28T05:41:03;10.67;;;3.80;;
44862;SDS011;30597;49.628;10.850;2023-07-28T05:43:29;7.93;;;4.07;;
44862;SDS011;30597;49.628;10.850;2023-07-28T05:45:56;12.03;;;4.80;;
44862;SDS011;30597;49.628;10.850;2023-07-28T05:48:22;9.80;;;3.97;;
44862;SDS011;30597;49.628;10.850;2023-07-28T05:50:48;8.53;;;4.87;;
44862;SDS011;30597;49.628;10.850;2023-07-28T05:53:13;10.63;;;5.70;;
44862;SDS011;30597;49.628;10.850;2023-07-28T05:55:39;7.07;;;4.60;;
44862;SDS011;30597;49.628;10.850;2023-07-28T05:58:05;8.77;;;4.37;;
44862;SDS011;30597;49.628;10.850;2023-07-28T06:00:30;10.23;;;4.23;;
44862;SDS011;30597;49.628;10.850;2023-07-28T06:02:56;6.73;;;4.67;;
44862;SDS011;30597;49.628;10.850;2023-07-28T06:05:22;7.63;;;4.23;;
44862;SDS011;30597;49.628;10.850;2023-07-28T06:07:48;8.50;;;5.07;;
44862;SDS011;30597;49.628;10.850;2023-07-28T06:10:13;7.40;;;5.03;;
44862;SDS011;30597;49.628;10.850;2023-07-28T06:12:39;10.00;;;4.77;;
44862;SDS011;30597;49.628;10.850;2023-07-28T06:15:05;7.90;;;5.13;;
44862;SDS011;30597;49.628;10.850;2023-07-28T06:17:31;6.33;;;3.80;;
44862;SDS011;30597;49.628;10.850;2023-07-28T06:19:57;7.83;;;5.10;;
44862;SDS011;30597;49.628;10.850;2023-07-28T06:22:22;4.83;;;3.80;;
44862;SDS011;30597;49.628;10.850;2023-07-28T06:24:48;6.70;;;4.07;;
44862;SDS011;30597;49.628;10.850;2023-07-28T06:27:14;8.53;;;5.47;;
44862;SDS011;30597;49.628;10.850;2023-07-28T06:29:39;7.83;;;4.90;;
44862;SDS011;30597;49.628;10.850;2023-07-28T06:32:05;9.50;;;5.30;;
44862;SDS011;30597;49.628;10.850;2023-07-28T06:34:31;8.10;;;4.47;;
44862;SDS011;30597;49.628;10.850;2023-07-28T06:36:56;12.80;;;5.37;;
44862;SDS011;30597;49.628;10.850;2023-07-28T06:39:22;9.57;;;5.30;;
44862;SDS011;30597;49.628;10.850;2023-07-28T06:41:49;7.30;;;4.80;;
44862;SDS011;30597;49.628;10.850;2023-07-28T06:44:15;6.17;;;4.70;;
44862;SDS011;30597;49.628;10.850;2023-07-28T06:46:41;8.33;;;5.07;;
44862;SDS011;30597;49.628;10.850;2023-07-28T06:49:06;7.77;;;4.73;;
44862;SDS011;30597;49.628;10.850;2023-07-28T06:51:32;7.53;;;5.77;;
44862;SDS011;30597;49.628;10.850;2023-07-28T06:53:58;6.57;;;4.93;;
44862;SDS011;30597;49.628;10.850;2023-07-28T06:56:24;6.13;;;4.80;;
44862;SDS011;30597;49.628;10.850;2023-07-28T06:58:50;6.20;;;5.10;;
44862;SDS011;30597;49.628;10.850;2023-07-28T07:01:16;7.90;;;4.63;;
44862;SDS011;30597;49.628;10.850;2023-07-28T07:03:42;6.73;;;4.80;;
44862;SDS011;30597;49.628;10.850;2023-07-28T07:06:08;9.50;;;5.50;;
44862;SDS011;30597;49.628;10.850;2023-07-28T07:08:34;8.50;;;4.63;;
44862;SDS011;30597;49.628;10.850;2023-07-28T07:10:59;6.13;;;5.33;;
44862;SDS011;30597;49.628;10.850;2023-07-28T07:13:25;6.70;;;4.53;;
44862;SDS011;30597;49.628;10.850;2023-07-28T07:15:51;8.03;;;5.20;;
44862;SDS011;30597;49.628;10.850;2023-07-28T07:18:16;5.90;;;4.50;;
44862;SDS011;30597;49.628;10.850;2023-07-28T07:20:42;5.93;;;5.30;;
44862;SDS011;30597;49.628;10.850;2023-07-28T07:23:08;7.90;;;4.50;;
44862;SDS011;30597;49.628;10.850;2023-07-28T07:25:33;7.53;;;5.37;;
44862;SDS011;30597;49.628;10.850;2023-07-28T07:27:59;6.07;;;4.60;;
44862;SDS011;30597;49.628;10.850;2023-07-28T07:30:25;6.30;;;4.87;;
44862;SDS011;30597;49.628;10.850;2023-07-28T07:32:50;6.63;;;5.23;;
44862;SDS011;30597;49.628;10.850;2023-07-28T07:35:16;9.43;;;5.50;;
44862;SDS011;30597;49.628;10.850;2023-07-28T07:37:42;6.33;;;5.40;;
44862;SDS011;30597;49.628;10.850;2023-07-28T07:40:08;6.37;;;5.33;;
44862;SDS011;30597;49.628;10.850;2023-07-28T07:42:47;7.27;;;5.50;;
44862;SDS011;30597;49.628;10.850;2023-07-28T07:45:14;6.70;;;5.30;;
44862;SDS011;30597;49.628;10.850;2023-07-28T07:47:40;6.17;;;4.63;;
44862;SDS011;30597;49.628;10.850;2023-07-28T07:50:07;5.90;;;5.30;;
44862;SDS011;30597;49.628;10.850;2023-07-28T07:52:37;6.17;;;4.97;;
44862;SDS011;30597;49.628;10.850;2023-07-28T07:55:03;5.57;;;5.00;;
44862;SDS011;30597;49.628;10.850;2023-07-28T07:57:29;7.00;;;5.27;;
44862;SDS011;30597;49.628;10.850;2023-07-28T07:59:58;7.13;;;5.57;;
44862;SDS011;30597;49.628;10.850;2023-07-28T08:02:24;7.77;;;5.30;;
44862;SDS011;30597;49.628;10.850;2023-07-28T08:04:51;7.43;;;5.93;;
44862;SDS011;30597;49.628;10.850;2023-07-28T08:07:17;5.33;;;4.83;;
44862;SDS011;30597;49.628;10.850;2023-07-28T08:09:42;4.30;;;3.90;;
44862;SDS011;30597;49.628;10.850;2023-07-28T08:12:08;6.20;;;4.53;;
44862;SDS011;30597;49.628;10.850;2023-07-28T08:14:34;4.90;;;4.40;;
44862;SDS011;30597;49.628;10.850;2023-07-28T08:16:59;5.83;;;5.03;;
44862;SDS011;30597;49.628;10.850;2023-07-28T08:19:25;5.90;;;4.40;;
44862;SDS011;30597;49.628;10.850;2023-07-28T08:21:50;5.87;;;4.33;;
44862;SDS011;30597;49.628;10.850;2023-07-28T08:24:16;6.50;;;5.13;;
44862;SDS011;30597;49.628;10.850;2023-07-28T08:26:42;5.63;;;4.87;;
44862;SDS011;30597;49.628;10.850;2023-07-28T08:29:07;5.20;;;4.60;;
44862;SDS011;30597;49.628;10.850;2023-07-28T08:31:33;5.53;;;4.97;;
44862;SDS011;30597;49.628;10.850;2023-07-28T08:33:58;5.47;;;4.60;;
44862;SDS011;30597;49.628;10.850;2023-07-28T08:36:24;5.90;;;5.30;;
44862;SDS011;30597;49.628;10.850;2023-07-28T08:38:49;6.90;;;4.67;;
44862;SDS011;30597;49.628;10.850;2023-07-28T08:41:15;6.90;;;4.70;;
44862;SDS011;30597;49.628;10.850;2023-07-28T08:43:40;5.90;;;4.50;;
44862;SDS011;30597;49.628;10.850;2023-07-28T08:46:06;4.90;;;4.40;;
44862;SDS011;30597;49.628;10.850;2023-07-28T08:48:32;6.87;;;4.73;;
44862;SDS011;30597;49.628;10.850;2023-07-28T08:50:58;4.97;;;4.50;;
44862;SDS011;30597;49.628;10.850;2023-07-28T08:53:24;7.67;;;4.90;;
44862;SDS011;30597;49.628;10.850;2023-07-28T08:55:50;6.07;;;4.77;;
44862;SDS011;30597;49.628;10.850;2023-07-28T08:58:17;5.50;;;4.57;;
44862;SDS011;30597;49.628;10.850;2023-07-28T09:00:44;4.70;;;4.20;;
44862;SDS011;30597;49.628;10.850;2023-07-28T09:03:16;5.07;;;4.53;;
44862;SDS011;30597;49.628;10.850;2023-07-28T09:05:43;4.63;;;4.13;;
44862;SDS011;30597;49.628;10.850;2023-07-28T09:08:11;4.60;;;4.13;;
44862;SDS011;30597;49.628;10.850;2023-07-28T09:10:47;4.90;;;4.40;;
44862;SDS011;30597;49.628;10.850;2023-07-28T09:13:15;5.87;;;4.83;;
44862;SDS011;30597;49.628;10.850;2023-07-28T09:15:41;7.43;;;5.40;;
44862;SDS011;30597;49.628;10.850;2023-07-28T09:18:11;5.17;;;4.60;;
44862;SDS011;30597;49.628;10.850;2023-07-28T09:20:41;4.90;;;4.07;;
44862;SDS011;30597;49.628;10.850;2023-07-28T09:23:08;4.13;;;3.73;;
44862;SDS011;30597;49.628;10.850;2023-07-28T09:25:35;5.60;;;4.47;;
44862;SDS011;30597;49.628;10.850;2023-07-28T09:28:01;5.57;;;4.80;;
44862;SDS011;30597;49.628;10.850;2023-07-28T09:30:42;5.90;;;4.47;;
44862;SDS011;30597;49.628;10.850;2023-07-28T09:33:12;5.30;;;4.33;;
44862;SDS011;30597;49.628;10.850;2023-07-28T09:35:48;5.50;;;4.80;;
44862;SDS011;30597;49.628;10.850;2023-07-28T09:38:14;4.83;;;4.30;;
44862;SDS011;30597;49.628;10.850;2023-07-28T09:40:40;4.97;;;4.57;;
44862;SDS011;30597;49.628;10.850;2023-07-28T09:43:07;4.20;;;3.80;;
44862;SDS011;30597;49.628;10.850;2023-07-28T09:45:32;4.63;;;4.30;;
44862;SDS011;30597;49.628;10.850;2023-07-28T09:47:59;4.73;;;4.30;;
44862;SDS011;30597;49.628;10.850;2023-07-28T09:50:27;5.03;;;4.53;;
44862;SDS011;30597;49.628;10.850;2023-07-28T09:52:58;5.90;;;4.67;;
44862;SDS011;30597;49.628;10.850;2023-07-28T09:55:28;4.47;;;4.03;;
44862;SDS011;30597;49.628;10.850;2023-07-28T09:57:54;4.97;;;4.47;;
44862;SDS011;30597;49.628;10.850;2023-07-28T10:00:21;6.07;;;4.97;;
44862;SDS011;30597;49.628;10.850;2023-07-28T10:02:48;4.63;;;3.23;;
44862;SDS011;30597;49.628;10.850;2023-07-28T10:05:15;4.90;;;4.50;;
44862;SDS011;30597;49.628;10.850;2023-07-28T10:07:41;4.07;;;3.60;;
44862;SDS011;30597;49.628;10.850;2023-07-28T10:10:09;4.83;;;4.23;;
44862;SDS011;30597;49.628;10.850;2023-07-28T10:12:47;4.07;;;3.67;;
44862;SDS011;30597;49.628;10.850;2023-07-28T10:15:18;4.83;;;3.83;;
44862;SDS011;30597;49.628;10.850;2023-07-28T10:20:29;4.63;;;4.07;;
44862;SDS011;30597;49.628;10.850;2023-07-28T10:25:42;4.70;;;4.20;;
44862;SDS011;30597;49.628;10.850;2023-07-28T10:30:59;5.20;;;4.70;;
44862;SDS011;30597;49.628;10.850;2023-07-28T10:33:27;4.57;;;4.13;;
44862;SDS011;30597;49.628;10.850;2023-07-28T10:41:26;4.10;;;3.70;;
44862;SDS011;30597;49.628;10.850;2023-07-28T10:43:52;4.17;;;3.70;;
44862;SDS011;30597;49.628;10.850;2023-07-28T10:46:20;3.83;;;3.50;;
44862;SDS011;30597;49.628;10.850;2023-07-28T10:48:47;4.40;;;4.00;;
44862;SDS011;30597;49.628;10.850;2023-07-28T10:51:21;3.80;;;3.50;;
44862;SDS011;30597;49.628;10.850;2023-07-28T10:53:50;4.67;;;3.57;;
44862;SDS011;30597;49.628;10.850;2023-07-28T10:56:16;4.87;;;4.10;;
44862;SDS011;30597;49.628;10.850;2023-07-28T10:58:42;4.00;;;3.60;;
44862;SDS011;30597;49.628;10.850;2023-07-28T11:01:07;4.20;;;3.17;;
44862;SDS011;30597;49.628;10.850;2023-07-28T11:03:33;3.70;;;3.40;;
44862;SDS011;30597;49.628;10.850;2023-07-28T11:05:58;5.20;;;4.07;;
44862;SDS011;30597;49.628;10.850;2023-07-28T11:08:25;3.93;;;3.63;;
44862;SDS011;30597;49.628;10.850;2023-07-28T11:10:51;4.17;;;3.77;;
44862;SDS011;30597;49.628;10.850;2023-07-28T11:13:17;3.83;;;3.50;;
44862;SDS011;30597;49.628;10.850;2023-07-28T11:15:43;6.17;;;4.97;;
44862;SDS011;30597;49.628;10.850;2023-07-28T11:18:09;4.60;;;4.20;;
44862;SDS011;30597;49.628;10.850;2023-07-28T11:20:34;4.97;;;4.30;;
44862;SDS011;30597;49.628;10.850;2023-07-28T11:23:01;4.63;;;3.50;;
44862;SDS011;30597;49.628;10.850;2023-07-28T11:25:29;3.87;;;3.50;;
44862;SDS011;30597;49.628;10.850;2023-07-28T11:27:56;4.33;;;3.87;;
44862;SDS011;30597;49.628;10.850;2023-07-28T11:30:22;4.00;;;3.70;;
44862;SDS011;30597;49.628;10.850;2023-07-28T11:32:51;4.23;;;3.83;;
44862;SDS011;30597;49.628;10.850;2023-07-28T11:35:18;4.00;;;3.70;;
44862;SDS011;30597;49.628;10.850;2023-07-28T11:37:46;4.50;;;3.80;;
44862;SDS011;30597;49.628;10.850;2023-07-28T11:40:16;5.13;;;3.93;;
44862;SDS011;30597;49.628;10.850;2023-07-28T11:42:53;3.83;;;3.40;;
44862;SDS011;30597;49.628;10.850;2023-07-28T11:45:20;3.80;;;3.50;;
44862;SDS011;30597;49.628;10.850;2023-07-28T11:48:00;4.40;;;4.00;;
44862;SDS011;30597;49.628;10.850;2023-07-28T11:50:29;4.40;;;3.70;;
44862;SDS011;30597;49.628;10.850;2023-07-28T11:52:59;3.90;;;3.60;;
44862;SDS011;30597;49.628;10.850;2023-07-28T11:55:25;4.47;;;4.10;;
44862;SDS011;30597;49.628;10.850;2023-07-28T11:57:51;4.40;;;4.00;;
44862;SDS011;30597;49.628;10.850;2023-07-28T12:00:22;5.37;;;3.80;;
44862;SDS011;30597;49.628;10.850;2023-07-28T12:03:01;4.00;;;3.60;;
44862;SDS011;30597;49.628;10.850;2023-07-28T12:05:37;4.70;;;4.30;;
44862;SDS011;30597;49.628;10.850;2023-07-28T12:08:04;4.30;;;3.90;;
44862;SDS011;30597;49.628;10.850;2023-07-28T12:10:32;3.90;;;3.33;;
44862;SDS011;30597;49.628;10.850;2023-07-28T12:13:03;4.37;;;3.80;;
44862;SDS011;30597;49.628;10.850;2023-07-28T12:15:32;7.33;;;3.60;;
44862;SDS011;30597;49.628;10.850;2023-07-28T12:18:03;4.10;;;3.70;;
44862;SDS011;30597;49.628;10.850;2023-07-28T12:20:33;4.97;;;4.50;;
44862;SDS011;30597;49.628;10.850;2023-07-28T12:23:00;4.27;;;3.77;;
44862;SDS011;30597;49.628;10.850;2023-07-28T12:25:26;3.70;;;3.30;;
44862;SDS011;30597;49.628;10.850;2023-07-28T12:27:51;5.10;;;3.67;;
44862;SDS011;30597;49.628;10.850;2023-07-28T12:30:17;6.33;;;4.10;;
44862;SDS011;30597;49.628;10.850;2023-07-28T12:32:43;5.13;;;4.17;;
44862;SDS011;30597;49.628;10.850;2023-07-28T12:35:08;5.00;;;3.80;;
44862;SDS011;30597;49.628;10.850;2023-07-28T12:37:34;4.80;;;3.70;;
44862;SDS011;30597;49.628;10.850;2023-07-28T12:40:00;4.23;;;3.83;;
44862;SDS011;30597;49.628;10.850;2023-07-28T12:42:26;5.10;;;4.17;;
44862;SDS011;30597;49.628;10.850;2023-07-28T12:44:52;4.03;;;3.20;;
44862;SDS011;30597;49.628;10.850;2023-07-28T12:47:17;4.40;;;3.73;;
44862;SDS011;30597;49.628;10.850;2023-07-28T12:49:43;5.63;;;4.23;;
44862;SDS011;30597;49.628;10.850;2023-07-28T12:52:08;5.70;;;4.30;;
44862;SDS011;30597;49.628;10.850;2023-07-28T12:54:34;7.13;;;5.00;;
44862;SDS011;30597;49.628;10.850;2023-07-28T12:57:00;7.33;;;4.30;;
44862;SDS011;30597;49.628;10.850;2023-07-28T12:59:26;6.00;;;4.00;;
44862;SDS011;30597;49.628;10.850;2023-07-28T13:01:53;4.70;;;3.37;;
44862;SDS011;30597;49.628;10.850;2023-07-28T13:04:18;6.80;;;3.87;;
44862;SDS011;30597;49.628;10.850;2023-07-28T13:06:44;7.60;;;3.90;;
44862;SDS011;30597;49.628;10.850;2023-07-28T13:09:09;5.73;;;3.73;;
44862;SDS011;30597;49.628;10.850;2023-07-28T13:11:35;5.10;;;4.33;;
44862;SDS011;30597;49.628;10.850;2023-07-28T13:14:01;5.60;;;3.37;;
44862;SDS011;30597;49.628;10.850;2023-07-28T13:16:27;8.07;;;3.83;;
44862;SDS011;30597;49.628;10.850;2023-07-28T13:18:52;4.57;;;4.17;;
44862;SDS011;30597;49.628;10.850;2023-07-28T13:21:18;5.83;;;3.93;;
44862;SDS011;30597;49.628;10.850;2023-07-28T13:23:43;4.17;;;3.77;;
44862;SDS011;30597;49.628;10.850;2023-07-28T13:26:09;5.10;;;3.93;;
44862;SDS011;30597;49.628;10.850;2023-07-28T13:28:35;5.73;;;4.57;;
44862;SDS011;30597;49.628;10.850;2023-07-28T13:31:01;5.33;;;4.27;;
44862;SDS011;30597;49.628;10.850;2023-07-28T13:33:27;6.93;;;4.40;;
44862;SDS011;30597;49.628;10.850;2023-07-28T13:35:53;4.73;;;3.27;;
44862;SDS011;30597;49.628;10.850;2023-07-28T13:38:19;6.47;;;4.37;;
44862;SDS011;30597;49.628;10.850;2023-07-28T13:40:44;6.33;;;4.30;;
44862;SDS011;30597;49.628;10.850;2023-07-28T13:43:10;4.27;;;3.70;;
44862;SDS011;30597;49.628;10.850;2023-07-28T13:45:35;4.70;;;3.20;;
44862;SDS011;30597;49.628;10.850;2023-07-28T13:48:02;4.73;;;3.63;;
44862;SDS011;30597;49.628;10.850;2023-07-28T13:50:27;6.40;;;3.97;;
44862;SDS011;30597;49.628;10.850;2023-07-28T13:52:53;4.50;;;3.43;;
44862;SDS011;30597;49.628;10.850;2023-07-28T13:55:18;3.57;;;3.17;;
44862;SDS011;30597;49.628;10.850;2023-07-28T13:57:44;4.77;;;2.97;;
44862;SDS011;30597;49.628;10.850;2023-07-28T14:00:09;4.77;;;3.43;;
44862;SDS011;30597;49.628;10.850;2023-07-28T14:02:36;7.53;;;4.20;;
44862;SDS011;30597;49.628;10.850;2023-07-28T14:05:02;4.60;;;3.67;;
44862;SDS011;30597;49.628;10.850;2023-07-28T14:07:28;4.23;;;3.83;;
44862;SDS011;30597;49.628;10.850;2023-07-28T14:09:54;4.63;;;3.93;;
44862;SDS011;30597;49.628;10.850;2023-07-28T14:12:19;6.53;;;3.70;;
44862;SDS011;30597;49.628;10.850;2023-07-28T14:14:45;4.83;;;3.87;;
44862;SDS011;30597;49.628;10.850;2023-07-28T14:17:10;5.13;;;3.70;;
44862;SDS011;30597;49.628;10.850;2023-07-28T14:19:37;3.80;;;3.40;;
44862;SDS011;30597;49.628;10.850;2023-07-28T14:22:03;4.00;;;3.50;;
44862;SDS011;30597;49.628;10.850;2023-07-28T14:24:29;4.33;;;3.33;;
44862;SDS011;30597;49.628;10.850;2023-07-28T14:26:55;4.33;;;3.70;;
44862;SDS011;30597;49.628;10.850;2023-07-28T14:29:23;4.57;;;3.40;;
44862;SDS011;30597;49.628;10.850;2023-07-28T14:31:48;4.10;;;3.33;;
44862;SDS011;30597;49.628;10.850;2023-07-28T14:34:14;4.83;;;3.30;;
44862;SDS011;30597;49.628;10.850;2023-07-28T14:36:40;5.07;;;2.93;;
44862;SDS011;30597;49.628;10.850;2023-07-28T14:39:05;4.43;;;3.57;;
44862;SDS011;30597;49.628;10.850;2023-07-28T14:41:31;4.67;;;2.90;;
44862;SDS011;30597;49.628;10.850;2023-07-28T14:43:57;4.47;;;3.20;;
44862;SDS011;30597;49.628;10.850;2023-07-28T14:46:23;6.53;;;3.60;;